createdAt,value
2017-06-22T00:01:12.683Z,9.03
2017-06-22T00:03:40.165Z,8.73
2017-06-22T00:06:07.654Z,9.93
2017-06-22T00:08:35.145Z,8.60
2017-06-22T00:11:02.639Z,8.30
2017-06-22T00:13:30.111Z,8.93
2017-06-22T00:15:57.606Z,9.30
2017-06-22T00:18:25.092Z,9.87
2017-06-22T00:20:52.607Z,9.57
2017-06-22T00:23:20.847Z,8.17
2017-06-22T00:25:48.338Z,8.93
2017-06-22T00:28:16.582Z,9.70
2017-06-22T00:30:44.077Z,9.23
2017-06-22T00:33:11.563Z,8.80
2017-06-22T00:35:39.038Z,8.73
2017-06-22T00:38:06.530Z,9.23
2017-06-22T00:40:34.004Z,8.27
2017-06-22T00:43:01.515Z,8.40
2017-06-22T00:45:28.983Z,8.73
2017-06-22T00:47:57.266Z,8.67
2017-06-22T00:50:26.319Z,9.87
2017-06-22T00:52:53.815Z,9.47
2017-06-22T00:55:21.282Z,9.73
2017-06-22T00:57:48.782Z,10.23
2017-06-22T01:00:16.254Z,9.13
2017-06-22T01:02:44.497Z,9.80
2017-06-22T01:05:11.982Z,9.50
2017-06-22T01:07:40.224Z,9.60
2017-06-22T01:10:07.719Z,10.43
2017-06-22T01:12:35.963Z,9.10
2017-06-22T01:15:03.454Z,10.43
2017-06-22T01:17:31.700Z,11.53
2017-06-22T01:19:59.183Z,9.77
2017-06-22T01:22:26.660Z,9.80
2017-06-22T01:24:54.152Z,9.20
2017-06-22T01:27:21.630Z,9.00
2017-06-22T01:29:49.124Z,10.27
2017-06-22T01:32:16.600Z,9.17
2017-06-22T01:34:44.097Z,9.40
2017-06-22T01:37:12.342Z,10.03
2017-06-22T01:39:39.819Z,10.60
2017-06-22T01:42:08.079Z,10.47
2017-06-22T01:44:35.550Z,9.80
2017-06-22T01:47:03.802Z,9.27
2017-06-22T01:49:31.279Z,9.50
2017-06-22T01:51:59.539Z,10.30
2017-06-22T01:54:27.015Z,10.20
2017-06-22T01:56:54.513Z,10.60
2017-06-22T01:59:21.986Z,9.60
2017-06-22T02:01:49.492Z,11.27
2017-06-22T02:04:16.962Z,9.30
2017-06-22T02:06:44.455Z,10.60
2017-06-22T02:09:11.939Z,10.27
2017-06-22T02:11:40.212Z,10.67
2017-06-22T02:14:08.454Z,10.97
2017-06-22T02:16:35.930Z,10.20
2017-06-22T02:19:03.425Z,11.40
2017-06-22T02:21:30.895Z,9.27
2017-06-22T02:23:58.386Z,10.10
2017-06-22T02:26:25.862Z,10.03
2017-06-22T02:28:54.118Z,10.70
2017-06-22T02:31:22.367Z,10.17
2017-06-22T02:33:49.866Z,10.13
2017-06-22T02:36:17.342Z,10.57
2017-06-22T02:38:44.838Z,10.03
2017-06-22T02:41:12.319Z,10.80
2017-06-22T02:43:40.599Z,10.70
2017-06-22T02:46:08.845Z,11.30
2017-06-22T02:48:36.326Z,9.80
2017-06-22T02:51:03.823Z,10.87
2017-06-22T02:53:31.312Z,13.20
2017-06-22T02:55:58.807Z,12.87
2017-06-22T02:58:26.291Z,15.93
2017-06-22T03:00:53.792Z,13.43
2017-06-22T03:03:22.031Z,17.37
2017-06-22T03:05:49.531Z,15.23
2017-06-22T03:08:17.016Z,14.57
2017-06-22T03:10:44.511Z,14.63
2017-06-22T03:13:11.998Z,13.37
2017-06-22T03:15:39.499Z,14.77
2017-06-22T03:18:06.978Z,13.40
2017-06-22T03:20:34.463Z,13.27
2017-06-22T03:23:01.960Z,12.27
2017-06-22T03:25:29.435Z,14.50
2017-06-22T03:27:56.935Z,13.67
2017-06-22T03:30:24.418Z,15.40
2017-06-22T03:32:51.927Z,15.60
2017-06-22T03:35:20.167Z,15.50
2017-06-22T03:37:47.670Z,16.27
2017-06-22T03:40:15.146Z,16.13
2017-06-22T03:42:42.638Z,14.30
2017-06-22T03:45:10.119Z,14.73
2017-06-22T03:47:37.615Z,15.90
2017-06-22T03:50:05.292Z,15.90
2017-06-22T03:52:32.786Z,12.57
2017-06-22T03:55:01.036Z,13.40
2017-06-22T03:57:28.538Z,11.50
2017-06-22T03:59:56.047Z,11.57
2017-06-22T04:02:23.529Z,12.40
2017-06-22T04:04:51.032Z,10.97
2017-06-22T04:07:18.511Z,11.50
2017-06-22T04:09:46.014Z,11.13
2017-06-22T04:12:13.490Z,12.77
2017-06-22T04:14:40.988Z,12.70
2017-06-22T04:17:09.234Z,11.33
2017-06-22T04:19:36.727Z,11.73
2017-06-22T04:22:04.206Z,12.80
2017-06-22T04:24:31.706Z,12.97
2017-06-22T04:26:59.182Z,12.20
2017-06-22T04:29:27.437Z,12.00
2017-06-22T04:31:54.925Z,12.30
2017-06-22T04:34:22.401Z,12.00
2017-06-22T04:36:49.904Z,12.50
2017-06-22T04:39:17.386Z,12.93
2017-06-22T04:41:44.891Z,13.97
2017-06-22T04:44:12.366Z,13.97
2017-06-22T04:46:39.859Z,12.50
2017-06-22T04:49:07.343Z,13.50
2017-06-22T04:51:34.838Z,12.67
2017-06-22T04:54:03.083Z,14.53
2017-06-22T04:56:30.575Z,12.67
2017-06-22T04:58:58.846Z,13.70
2017-06-22T05:01:27.111Z,14.00
2017-06-22T05:03:55.359Z,13.47
2017-06-22T05:06:22.855Z,14.77
2017-06-22T05:08:50.336Z,15.40
2017-06-22T05:11:17.821Z,15.27
2017-06-22T05:13:45.318Z,14.40
2017-06-22T05:16:12.797Z,15.10
2017-06-22T05:18:40.294Z,13.80
2017-06-22T05:21:07.771Z,15.00
2017-06-22T05:23:35.270Z,15.87
2017-06-22T05:26:02.755Z,15.00
2017-06-22T05:28:30.249Z,14.40
2017-06-22T05:30:57.730Z,16.83
2017-06-22T05:33:25.227Z,17.77
2017-06-22T05:35:52.706Z,16.60
2017-06-22T05:38:20.966Z,16.70
2017-06-22T05:40:49.215Z,19.77
2017-06-22T05:43:16.710Z,19.90
2017-06-22T05:45:44.187Z,18.17
2017-06-22T05:48:11.670Z,18.30
2017-06-22T05:50:39.168Z,18.97
2017-06-22T05:53:06.651Z,17.40
2017-06-22T05:55:34.143Z,17.93
2017-06-22T05:58:01.618Z,18.07
2017-06-22T06:00:29.879Z,23.70
2017-06-22T06:02:57.361Z,20.20
2017-06-22T06:05:24.869Z,18.23
2017-06-22T06:07:52.355Z,18.10
2017-06-22T06:10:20.627Z,20.30
2017-06-22T06:12:48.870Z,17.57
2017-06-22T06:15:16.368Z,17.20
2017-06-22T06:17:43.848Z,17.93
2017-06-22T06:20:11.332Z,17.10
2017-06-22T06:22:38.834Z,17.00
2017-06-22T06:25:07.082Z,17.37
2017-06-22T06:27:34.591Z,16.67
2017-06-22T06:30:02.066Z,18.20
2017-06-22T06:32:29.564Z,17.07
2017-06-22T06:34:57.807Z,16.60
2017-06-22T06:37:25.311Z,16.23
2017-06-22T06:39:52.792Z,16.80
2017-06-22T06:42:20.287Z,16.80
2017-06-22T06:44:47.763Z,17.67
2017-06-22T06:47:16.041Z,16.93
2017-06-22T06:49:43.522Z,17.97
2017-06-22T06:52:11.009Z,17.97
2017-06-22T06:54:38.511Z,17.37
2017-06-22T06:57:05.995Z,16.93
2017-06-22T06:59:33.496Z,16.70
2017-06-22T07:02:01.747Z,15.60
2017-06-22T07:04:29.814Z,19.73
2017-06-22T07:06:57.304Z,15.53
2017-06-22T07:09:25.569Z,15.67
2017-06-22T07:11:53.819Z,15.83
2017-06-22T07:14:21.322Z,15.07
2017-06-22T07:16:48.802Z,14.67
2017-06-22T07:19:16.281Z,14.63
2017-06-22T07:21:43.775Z,17.20
2017-06-22T07:24:11.259Z,16.63
2017-06-22T07:26:38.758Z,16.13
2017-06-22T07:29:06.242Z,17.53
2017-06-22T07:31:33.750Z,17.17
2017-06-22T07:34:01.226Z,17.67
2017-06-22T07:36:29.491Z,17.43
2017-06-22T07:38:56.971Z,16.10
2017-06-22T07:41:24.471Z,15.87
2017-06-22T07:43:51.947Z,15.33
2017-06-22T07:46:19.440Z,15.87
2017-06-22T07:48:46.934Z,15.17
2017-06-22T07:51:14.410Z,16.03
2017-06-22T07:53:41.919Z,14.87
2017-06-22T07:56:09.402Z,16.63
2017-06-22T07:58:36.907Z,16.60
2017-06-22T08:01:04.391Z,16.27
2017-06-22T08:03:31.890Z,16.20
2017-06-22T08:05:59.377Z,16.90
2017-06-22T08:08:26.875Z,15.00
2017-06-22T08:10:54.354Z,17.47
2017-06-22T08:13:21.850Z,15.90
2017-06-22T08:15:49.327Z,16.20
2017-06-22T08:18:16.839Z,14.30
2017-06-22T08:20:45.087Z,14.97
2017-06-22T08:23:12.568Z,15.90
2017-06-22T08:25:40.066Z,14.07
2017-06-22T08:28:07.556Z,15.40
2017-06-22T08:30:35.046Z,15.30
2017-06-22T08:33:02.527Z,15.47
2017-06-22T08:35:30.031Z,15.37
2017-06-22T08:37:58.279Z,15.40
2017-06-22T08:40:25.792Z,15.60
2017-06-22T08:42:53.267Z,16.73
2017-06-22T08:45:20.766Z,15.07
2017-06-22T08:47:48.246Z,15.53
2017-06-22T08:50:15.754Z,14.60
2017-06-22T08:52:43.230Z,13.90
2017-06-22T08:55:11.475Z,15.03
2017-06-22T08:57:38.980Z,14.93
2017-06-22T09:00:06.467Z,15.17
2017-06-22T09:02:33.971Z,15.73
2017-06-22T09:05:01.455Z,14.70
2017-06-22T09:07:28.962Z,14.37
2017-06-22T09:09:56.438Z,13.90
2017-06-22T09:12:24.708Z,14.73
2017-06-22T09:14:52.955Z,15.17
2017-06-22T09:17:20.455Z,14.33
2017-06-22T09:19:47.938Z,14.57
2017-06-22T09:22:15.439Z,14.60
2017-06-22T09:24:42.914Z,14.80
2017-06-22T09:27:11.162Z,15.43
2017-06-22T09:29:38.658Z,13.27
2017-06-22T09:32:06.140Z,13.80
2017-06-22T09:34:33.635Z,14.70
2017-06-22T09:37:01.891Z,15.10
2017-06-22T09:39:29.397Z,15.83
2017-06-22T09:41:56.880Z,16.67
2017-06-22T09:44:24.379Z,15.90
2017-06-22T09:46:52.623Z,16.23
2017-06-22T09:49:20.126Z,15.03
2017-06-22T09:51:47.615Z,15.30
2017-06-22T09:54:15.116Z,15.60
2017-06-22T09:56:43.368Z,16.20
2017-06-22T09:59:10.864Z,15.50
2017-06-22T10:01:38.349Z,16.03
2017-06-22T10:04:05.858Z,15.87
2017-06-22T10:06:34.102Z,16.50
2017-06-22T10:09:01.584Z,14.20
2017-06-22T10:11:29.852Z,14.80
2017-06-22T10:13:58.098Z,15.33
2017-06-22T10:16:25.603Z,15.03
2017-06-22T10:18:53.086Z,15.87
2017-06-22T10:21:20.587Z,16.00
2017-06-22T10:23:48.830Z,15.73
2017-06-22T10:26:16.327Z,16.10
2017-06-22T10:28:44.575Z,14.43
2017-06-22T10:31:12.098Z,15.63
2017-06-22T10:33:39.578Z,17.47
2017-06-22T10:36:07.088Z,16.83
2017-06-22T10:38:34.572Z,16.37
2017-06-22T10:41:02.072Z,17.57
2017-06-22T10:43:29.581Z,15.40
2017-06-22T10:45:58.498Z,16.43
2017-06-22T10:48:26.004Z,15.40
2017-06-22T10:50:53.488Z,16.37
2017-06-22T10:53:20.987Z,15.73
2017-06-22T10:55:48.467Z,16.37
2017-06-22T10:58:15.962Z,17.77
2017-06-22T11:00:43.439Z,16.37
2017-06-22T11:03:10.942Z,15.73
2017-06-22T11:05:38.427Z,15.53
2017-06-22T11:08:05.931Z,17.10
2017-06-22T11:10:33.421Z,14.73
2017-06-22T11:13:00.903Z,14.90
2017-06-22T11:15:28.407Z,15.63
2017-06-22T11:17:55.890Z,15.93
2017-06-22T11:20:23.383Z,14.90
2017-06-22T11:22:51.634Z,15.23
2017-06-22T11:25:19.136Z,15.00
2017-06-22T11:27:46.619Z,15.53
2017-06-22T11:30:14.120Z,16.83
2017-06-22T11:32:41.603Z,13.87
2017-06-22T11:35:09.110Z,14.90
2017-06-22T11:37:36.600Z,15.90
2017-06-22T11:40:04.112Z,16.30
2017-06-22T11:42:31.599Z,14.13
2017-06-22T11:44:59.867Z,15.23
2017-06-22T11:47:28.115Z,14.80
2017-06-22T11:49:55.612Z,14.73
2017-06-22T11:52:23.094Z,14.93
2017-06-22T11:54:50.580Z,14.70
2017-06-22T11:57:18.126Z,14.33
2017-06-22T11:59:45.608Z,13.93
2017-06-22T12:02:13.879Z,15.43
2017-06-22T12:04:41.355Z,15.83
2017-06-22T12:07:08.856Z,16.37
2017-06-22T12:09:36.337Z,15.97
2017-06-22T12:12:03.832Z,15.47
2017-06-22T12:14:31.322Z,16.23
2017-06-22T12:16:58.829Z,14.70
2017-06-22T12:19:26.320Z,14.00
2017-06-22T12:21:53.803Z,14.30
2017-06-22T12:24:21.303Z,14.07
2017-06-22T12:26:48.786Z,14.70
2017-06-22T12:29:16.291Z,14.90
2017-06-22T12:31:44.538Z,14.13
2017-06-22T12:34:12.034Z,15.60
2017-06-22T12:36:39.515Z,13.37
2017-06-22T12:39:07.014Z,14.43
2017-06-22T12:41:34.489Z,13.50
2017-06-22T12:44:01.984Z,13.03
2017-06-22T12:46:29.463Z,13.63
2017-06-22T12:48:56.974Z,13.67
2017-06-22T12:51:24.463Z,13.40
2017-06-22T12:53:51.962Z,13.03
2017-06-22T12:56:20.223Z,13.77
2017-06-22T12:58:48.474Z,13.40
2017-06-22T13:01:15.966Z,13.40
2017-06-22T13:03:44.212Z,12.40
2017-06-22T13:06:11.712Z,12.80
2017-06-22T13:08:39.196Z,12.93
2017-06-22T13:11:06.690Z,14.40
2017-06-22T13:13:34.939Z,13.27
2017-06-22T13:16:02.453Z,13.50
2017-06-22T13:18:29.931Z,13.90
2017-06-22T13:20:57.411Z,12.90
2017-06-22T13:23:24.911Z,14.40
2017-06-22T13:25:52.396Z,14.53
2017-06-22T13:28:19.889Z,15.37
2017-06-22T13:30:48.143Z,13.43
2017-06-22T13:33:15.649Z,12.90
2017-06-22T13:35:43.137Z,14.70
2017-06-22T13:38:10.630Z,14.43
2017-06-22T13:40:38.878Z,14.43
2017-06-22T13:43:06.372Z,15.20
2017-06-22T13:45:33.859Z,16.27
2017-06-22T13:48:01.372Z,14.80
2017-06-22T13:50:28.866Z,13.40
2017-06-22T13:52:56.342Z,14.00
2017-06-22T13:55:23.840Z,14.17
2017-06-22T13:57:51.323Z,14.73
2017-06-22T14:00:18.815Z,16.20
2017-06-22T14:02:46.298Z,14.53
2017-06-22T14:05:14.560Z,15.07
2017-06-22T14:07:42.043Z,14.17
2017-06-22T14:10:09.539Z,16.20
2017-06-22T14:12:37.018Z,13.77
2017-06-22T14:15:04.556Z,13.10
2017-06-22T14:17:32.038Z,14.30
2017-06-22T14:20:00.302Z,14.13
2017-06-22T14:22:27.783Z,14.43
2017-06-22T14:24:56.024Z,14.73
2017-06-22T14:27:23.518Z,13.90
2017-06-22T14:29:50.999Z,14.80
2017-06-22T14:32:18.497Z,13.17
2017-06-22T14:34:45.985Z,18.27
2017-06-22T14:37:13.491Z,13.80
2017-06-22T14:39:40.980Z,13.80
2017-06-22T14:42:08.479Z,22.33
2017-06-22T14:44:35.956Z,13.40
2017-06-22T14:47:03.443Z,10.50
2017-06-22T14:49:31.683Z,9.93
2017-06-22T14:51:59.194Z,11.93
2017-06-22T14:54:26.670Z,21.40
2017-06-22T14:56:54.156Z,13.83
2017-06-22T14:59:21.655Z,9.67
2017-06-22T15:01:49.143Z,10.30
2017-06-22T15:04:16.639Z,8.87
2017-06-22T15:06:44.118Z,7.80
2017-06-22T15:09:11.603Z,7.23
2017-06-22T15:11:39.083Z,7.90
2017-06-22T15:14:06.574Z,8.23
2017-06-22T15:16:34.044Z,8.10
2017-06-22T15:19:01.540Z,7.63
2017-06-22T15:21:29.006Z,8.43
2017-06-22T15:23:56.507Z,9.57
2017-06-22T15:26:23.979Z,8.10
2017-06-22T15:28:51.475Z,8.37
2017-06-22T15:31:18.963Z,9.47
2017-06-22T15:33:46.465Z,10.00
2017-06-22T15:36:13.934Z,8.30
2017-06-22T15:38:41.422Z,7.87
2017-06-22T15:41:08.900Z,9.87
2017-06-22T15:43:36.404Z,9.07
2017-06-22T15:46:03.877Z,9.80
2017-06-22T15:48:32.119Z,9.10
2017-06-22T15:50:59.619Z,12.30
2017-06-22T15:53:27.099Z,10.60
2017-06-22T15:55:54.599Z,14.13
2017-06-22T15:58:22.861Z,10.37
2017-06-22T16:00:50.350Z,10.63
2017-06-22T16:03:17.838Z,12.20
2017-06-22T16:05:45.343Z,13.03
2017-06-22T16:08:13.595Z,10.73
2017-06-22T16:10:41.883Z,11.00
2017-06-22T16:13:10.130Z,12.47
2017-06-22T16:15:37.620Z,14.43
2017-06-22T16:18:05.896Z,12.07
2017-06-22T16:20:34.163Z,12.40
2017-06-22T16:23:02.423Z,11.60
2017-06-22T16:25:29.903Z,12.13
2017-06-22T16:27:57.411Z,12.90
2017-06-22T16:30:24.894Z,11.37
2017-06-22T16:32:53.164Z,12.23
2017-06-22T16:35:20.642Z,11.73
2017-06-22T16:37:48.148Z,11.80
2017-06-22T16:40:15.655Z,11.90
2017-06-22T16:42:43.165Z,11.47
2017-06-22T16:45:10.643Z,11.07
2017-06-22T16:47:38.139Z,9.93
2017-06-22T16:50:05.622Z,11.23
2017-06-22T16:52:33.126Z,12.03
2017-06-22T16:55:00.617Z,12.20
2017-06-22T16:57:28.115Z,10.43
2017-06-22T16:59:55.592Z,9.67
2017-06-22T17:02:23.087Z,10.43
2017-06-22T17:04:50.571Z,9.57
2017-06-22T17:07:18.088Z,12.40
2017-06-22T17:09:45.580Z,11.40
2017-06-22T17:12:13.067Z,12.67
2017-06-22T17:14:40.562Z,10.43
2017-06-22T17:17:08.041Z,9.73
2017-06-22T17:19:35.547Z,16.70
2017-06-22T17:22:03.027Z,10.57
2017-06-22T17:24:30.540Z,11.80
2017-06-22T17:26:58.028Z,12.20
2017-06-22T17:29:25.551Z,11.70
2017-06-22T17:31:53.043Z,12.57
2017-06-22T17:34:20.550Z,11.33
2017-06-22T17:36:48.799Z,12.90
2017-06-22T17:39:16.290Z,10.00
2017-06-22T17:41:43.774Z,9.90
2017-06-22T17:44:11.280Z,11.57
2017-06-22T17:46:39.524Z,10.20
2017-06-22T17:49:07.041Z,11.20
2017-06-22T17:51:34.530Z,9.20
2017-06-22T17:54:02.030Z,9.93
2017-06-22T17:56:30.271Z,8.90
2017-06-22T17:58:57.751Z,11.40
2017-06-22T18:01:26.009Z,11.20
2017-06-22T18:03:53.492Z,13.63
2017-06-22T18:06:20.998Z,11.40
2017-06-22T18:08:48.483Z,12.37
2017-06-22T18:11:16.762Z,11.63
2017-06-22T18:13:44.247Z,11.70
2017-06-22T18:16:11.742Z,10.93
2017-06-22T18:18:39.238Z,11.50
2017-06-22T18:21:07.504Z,10.67
2017-06-22T18:23:35.746Z,10.87
2017-06-22T18:26:03.250Z,10.77
2017-06-22T18:28:30.727Z,11.23
2017-06-22T18:30:58.220Z,11.13
2017-06-22T18:33:25.700Z,11.20
2017-06-22T18:35:53.965Z,11.80
2017-06-22T18:38:21.456Z,12.63
2017-06-22T18:40:48.959Z,11.10
2017-06-22T18:43:16.443Z,13.10
2017-06-22T18:45:43.944Z,11.60
2017-06-22T18:48:11.423Z,11.57
2017-06-22T18:50:38.931Z,12.20
2017-06-22T18:53:06.426Z,11.47
2017-06-22T18:55:33.911Z,11.40
2017-06-22T18:58:02.183Z,11.97
2017-06-22T19:00:29.676Z,16.40
2017-06-22T19:02:57.184Z,24.30
2017-06-22T19:05:25.434Z,21.40
2017-06-22T19:07:52.945Z,14.20
2017-06-22T19:10:20.430Z,13.43
2017-06-22T19:12:47.927Z,34.60
2017-06-22T19:15:15.412Z,19.97
2017-06-22T19:17:42.915Z,12.93
2017-06-22T19:20:10.398Z,12.60
2017-06-22T19:22:37.907Z,25.47
2017-06-22T19:25:05.390Z,11.10
2017-06-22T19:27:33.669Z,11.70
2017-06-22T19:30:01.927Z,17.63
2017-06-22T19:32:29.424Z,14.00
2017-06-22T19:34:56.902Z,14.80
2017-06-22T19:37:24.403Z,12.57
2017-06-22T19:39:51.889Z,12.27
2017-06-22T19:42:19.415Z,13.17
2017-06-22T19:44:47.670Z,13.50
2017-06-22T19:47:15.183Z,13.07
2017-06-22T19:49:42.671Z,13.07
2017-06-22T19:52:10.150Z,14.60
2017-06-22T19:54:37.654Z,13.30
2017-06-22T19:57:05.142Z,12.90
2017-06-22T19:59:32.642Z,13.90
2017-06-22T20:02:00.125Z,13.90
2017-06-22T20:04:27.639Z,12.47
2017-06-22T20:06:55.123Z,13.97
2017-06-22T20:09:22.628Z,17.63
2017-06-22T20:11:50.120Z,14.50
2017-06-22T20:14:17.619Z,14.33
2017-06-22T20:16:45.095Z,13.80
2017-06-22T20:19:12.595Z,13.33
2017-06-22T20:21:40.084Z,12.90
2017-06-22T20:24:07.585Z,13.80
2017-06-22T20:26:35.072Z,15.40
2017-06-22T20:29:02.571Z,14.03
2017-06-22T20:31:30.825Z,14.60
2017-06-22T20:33:58.321Z,14.57
2017-06-22T20:36:25.811Z,16.27
2017-06-22T20:38:53.311Z,14.97
2017-06-22T20:41:21.566Z,14.70
2017-06-22T20:43:49.042Z,14.30
2017-06-22T20:46:17.314Z,15.97
2017-06-22T20:48:45.568Z,15.27
2017-06-22T20:51:13.070Z,14.03
2017-06-22T20:53:40.551Z,14.90
2017-06-22T20:56:08.072Z,15.27
2017-06-22T20:58:35.552Z,14.13
2017-06-22T21:01:03.051Z,14.30
2017-06-22T21:03:30.531Z,14.67
2017-06-22T21:05:58.028Z,17.10
2017-06-22T21:08:25.512Z,14.50
2017-06-22T21:10:53.010Z,14.33
2017-06-22T21:13:20.500Z,16.70
2017-06-22T21:15:47.998Z,15.20
2017-06-22T21:18:16.247Z,16.50
2017-06-22T21:20:43.738Z,14.77
2017-06-22T21:23:11.222Z,15.63
2017-06-22T21:25:38.726Z,15.87
2017-06-22T21:28:06.997Z,14.53
2017-06-22T21:30:35.271Z,16.03
2017-06-22T21:33:03.523Z,16.13
2017-06-22T21:35:31.051Z,13.73
2017-06-22T21:37:58.527Z,15.13
2017-06-22T21:40:26.012Z,15.00
2017-06-22T21:42:54.274Z,15.87
2017-06-22T21:45:21.753Z,15.30
2017-06-22T21:47:49.251Z,15.37
2017-06-22T21:50:16.736Z,15.40
2017-06-22T21:52:44.241Z,16.13
2017-06-22T21:55:11.729Z,15.17
2017-06-22T21:57:39.214Z,15.80
2017-06-22T22:00:07.461Z,16.83
2017-06-22T22:02:34.966Z,14.87
2017-06-22T22:05:02.453Z,15.30
2017-06-22T22:07:29.948Z,14.77
2017-06-22T22:09:58.195Z,15.07
2017-06-22T22:12:25.694Z,16.90
2017-06-22T22:14:53.180Z,15.73
2017-06-22T22:17:20.673Z,15.60
2017-06-22T22:19:48.167Z,16.40
2017-06-22T22:22:15.668Z,17.27
2017-06-22T22:24:43.147Z,15.07
2017-06-22T22:27:10.646Z,16.20
2017-06-22T22:29:38.128Z,17.07
2017-06-22T22:32:05.609Z,16.93
2017-06-22T22:34:33.871Z,15.40
2017-06-22T22:37:01.356Z,14.67
2017-06-22T22:39:28.854Z,15.50
2017-06-22T22:41:56.334Z,15.93
2017-06-22T22:44:23.837Z,16.27
2017-06-22T22:46:51.322Z,18.10
2017-06-22T22:49:18.818Z,17.93
2017-06-22T22:51:47.067Z,16.57
2017-06-22T22:54:14.559Z,16.60
2017-06-22T22:56:42.046Z,17.03
2017-06-22T22:59:09.546Z,16.67
2017-06-22T23:01:37.799Z,16.67
2017-06-22T23:04:05.302Z,16.30
2017-06-22T23:06:32.782Z,15.77
2017-06-22T23:09:00.283Z,17.03
2017-06-22T23:11:27.768Z,14.70
2017-06-22T23:13:55.278Z,19.20
2017-06-22T23:16:22.779Z,15.77
2017-06-22T23:18:50.275Z,17.73
2017-06-22T23:21:17.754Z,17.43
2017-06-22T23:23:45.261Z,13.83
2017-06-22T23:26:12.759Z,14.13
2017-06-22T23:28:40.250Z,13.43
2017-06-22T23:31:07.755Z,16.13
2017-06-22T23:33:35.235Z,16.57
2017-06-22T23:36:03.505Z,18.83
2017-06-22T23:38:31.754Z,15.83
2017-06-22T23:40:59.273Z,13.53
2017-06-22T23:43:26.755Z,13.80
2017-06-22T23:45:54.249Z,17.70
2017-06-22T23:48:22.499Z,15.53
2017-06-22T23:50:50.000Z,14.83
2017-06-22T23:53:17.489Z,13.90
2017-06-22T23:55:44.985Z,15.13
2017-06-22T23:58:13.243Z,14.10
